createdAt,value
2022-12-15T00:01:17.293Z,7.77
2022-12-15T00:03:43.813Z,9.15
2022-12-15T00:06:10.317Z,8.24
2022-12-15T00:08:36.667Z,6.53
2022-12-15T00:11:03.090Z,7.80
2022-12-15T00:13:30.038Z,8.05
2022-12-15T00:15:56.824Z,7.32
2022-12-15T00:18:23.303Z,7.46
2022-12-15T00:20:49.693Z,8.10
2022-12-15T00:23:16.064Z,7.59
2022-12-15T00:25:42.513Z,7.19
2022-12-15T00:28:08.928Z,6.98
2022-12-15T00:30:35.303Z,7.70
2022-12-15T00:33:01.677Z,6.53
2022-12-15T00:35:28.006Z,6.12
2022-12-15T00:37:54.359Z,6.40
2022-12-15T00:40:23.470Z,6.32
2022-12-15T00:42:49.915Z,8.54
2022-12-15T00:45:16.333Z,6.31
2022-12-15T00:47:42.660Z,3.98
2022-12-15T00:50:09.134Z,3.20
2022-12-15T00:52:35.496Z,3.99
2022-12-15T00:55:01.887Z,5.17
2022-12-15T00:57:28.320Z,5.89
2022-12-15T00:59:54.708Z,6.51
2022-12-15T01:02:21.301Z,7.43
2022-12-15T01:04:47.893Z,7.64
2022-12-15T01:07:14.295Z,7.61
2022-12-15T01:09:40.719Z,7.90
2022-12-15T01:12:10.166Z,8.19
2022-12-15T01:14:36.537Z,8.41
2022-12-15T01:17:03.095Z,8.42
2022-12-15T01:19:29.458Z,7.71
2022-12-15T01:21:58.929Z,8.21
2022-12-15T01:24:32.650Z,8.40
2022-12-15T01:26:59.019Z,8.47
2022-12-15T01:29:25.979Z,8.41
2022-12-15T01:31:53.894Z,8.68
2022-12-15T01:34:20.507Z,8.69
2022-12-15T01:36:46.968Z,8.82
2022-12-15T01:39:13.387Z,8.56
2022-12-15T01:41:39.760Z,8.79
2022-12-15T01:44:06.158Z,8.46
2022-12-15T01:46:32.587Z,8.94
2022-12-15T01:48:59.009Z,8.64
2022-12-15T01:51:25.362Z,8.93
2022-12-15T01:53:51.756Z,8.75
2022-12-15T01:56:18.967Z,8.52
2022-12-15T01:58:45.319Z,8.26
2022-12-15T02:01:11.716Z,7.96
2022-12-15T02:03:40.946Z,7.91
2022-12-15T02:06:07.495Z,7.73
2022-12-15T02:08:33.856Z,8.11
2022-12-15T02:11:00.206Z,7.63
2022-12-15T02:13:26.683Z,7.53
2022-12-15T02:15:53.191Z,7.64
2022-12-15T02:18:19.695Z,7.57
2022-12-15T02:20:46.279Z,7.38
2022-12-15T02:23:12.663Z,7.73
2022-12-15T02:25:39.189Z,7.72
2022-12-15T02:28:05.737Z,6.85
2022-12-15T02:30:32.126Z,7.05
2022-12-15T02:32:58.481Z,6.75
2022-12-15T02:35:24.795Z,6.24
2022-12-15T02:37:51.148Z,7.15
2022-12-15T02:40:17.892Z,7.21
2022-12-15T02:42:44.257Z,6.35
2022-12-15T02:45:10.645Z,6.34
2022-12-15T02:47:36.971Z,6.79
2022-12-15T02:50:03.316Z,7.52
2022-12-15T02:52:29.669Z,7.42
2022-12-15T02:54:56.054Z,7.20
2022-12-15T02:57:22.399Z,7.15
2022-12-15T02:59:48.743Z,7.41
2022-12-15T03:02:15.271Z,6.83
2022-12-15T03:04:42.806Z,6.47
2022-12-15T03:07:09.198Z,5.27
2022-12-15T03:09:37.682Z,4.28
2022-12-15T03:12:05.916Z,3.97
2022-12-15T03:14:32.558Z,4.80
2022-12-15T03:16:58.985Z,4.79
2022-12-15T03:19:25.533Z,4.64
2022-12-15T03:21:51.957Z,4.67
2022-12-15T03:24:18.352Z,4.32
2022-12-15T03:26:44.720Z,4.16
2022-12-15T03:29:11.137Z,5.92
2022-12-15T03:31:37.624Z,5.52
2022-12-15T03:34:03.992Z,5.69
2022-12-15T03:36:30.340Z,4.67
2022-12-15T03:38:56.741Z,4.85
2022-12-15T03:41:23.097Z,4.88
2022-12-15T03:43:49.845Z,5.76
2022-12-15T03:46:18.776Z,6.43
2022-12-15T03:48:45.401Z,6.39
2022-12-15T03:51:11.735Z,5.61
2022-12-15T03:53:38.075Z,3.34
2022-12-15T03:56:05.460Z,1.77
2022-12-15T03:58:32.027Z,2.19
2022-12-15T04:00:58.401Z,2.44
2022-12-15T04:03:24.854Z,2.43
2022-12-15T04:05:51.272Z,2.54
2022-12-15T04:08:18.694Z,3.15
2022-12-15T04:10:45.027Z,3.32
2022-12-15T04:13:11.869Z,4.23
2022-12-15T04:15:41.404Z,4.22
2022-12-15T04:18:07.762Z,4.50
2022-12-15T04:20:34.160Z,4.42
2022-12-15T04:23:00.695Z,4.73
2022-12-15T04:25:27.137Z,5.20
2022-12-15T04:27:58.386Z,12.33
2022-12-15T04:30:27.670Z,8.15
2022-12-15T04:32:54.057Z,6.55
2022-12-15T04:35:20.425Z,11.13
2022-12-15T04:37:46.948Z,8.08
2022-12-15T04:40:13.331Z,8.03
2022-12-15T04:42:39.876Z,4.73
2022-12-15T04:45:06.260Z,3.97
2022-12-15T04:50:14.273Z,4.05
2022-12-15T04:52:41.377Z,4.61
2022-12-15T04:55:07.753Z,5.53
2022-12-15T04:57:34.090Z,5.90
2022-12-15T05:00:00.451Z,5.56
2022-12-15T05:02:26.920Z,5.69
2022-12-15T05:04:53.369Z,5.85
2022-12-15T05:07:19.722Z,6.55
2022-12-15T05:09:46.080Z,5.72
2022-12-15T05:12:12.596Z,4.51
2022-12-15T05:14:38.981Z,3.61
2022-12-15T05:17:05.426Z,3.01
2022-12-15T05:19:31.780Z,5.08
2022-12-15T05:21:58.179Z,6.04
2022-12-15T05:24:24.625Z,6.42
2022-12-15T05:26:53.244Z,6.05
2022-12-15T05:32:00.510Z,5.71
2022-12-15T05:34:26.924Z,5.90
2022-12-15T05:36:53.314Z,5.80
2022-12-15T05:39:19.699Z,5.62
2022-12-15T05:41:46.105Z,5.95
2022-12-15T05:44:12.442Z,5.69
2022-12-15T05:46:38.805Z,6.38
2022-12-15T05:49:05.178Z,6.10
2022-12-15T05:51:31.502Z,5.49
2022-12-15T05:53:58.055Z,5.45
2022-12-15T05:56:24.426Z,5.60
2022-12-15T05:58:50.803Z,5.89
2022-12-15T06:01:17.544Z,5.97
2022-12-15T06:03:44.013Z,5.00
2022-12-15T06:06:14.030Z,4.00
2022-12-15T06:08:41.405Z,3.98
2022-12-15T06:13:49.573Z,5.73
2022-12-15T06:16:16.022Z,5.26
2022-12-15T06:21:22.908Z,4.53
2022-12-15T06:23:57.464Z,4.92
2022-12-15T06:26:23.884Z,5.49
2022-12-15T06:29:05.124Z,5.56
2022-12-15T06:31:31.752Z,5.08
2022-12-15T06:36:40.623Z,5.18
2022-12-15T06:39:07.174Z,4.59
2022-12-15T06:41:33.606Z,4.59
2022-12-15T06:44:00.078Z,5.24
2022-12-15T06:46:26.608Z,5.41
2022-12-15T06:48:53.188Z,5.25
2022-12-15T06:51:19.705Z,5.90
2022-12-15T06:53:46.273Z,6.43
2022-12-15T06:56:12.746Z,6.00
2022-12-15T06:58:39.178Z,6.42
2022-12-15T07:01:05.738Z,6.19
2022-12-15T07:03:32.473Z,5.37
2022-12-15T07:06:11.395Z,5.80
2022-12-15T07:08:41.351Z,5.64
2022-12-15T07:11:08.260Z,6.24
2022-12-15T07:13:34.835Z,5.51
2022-12-15T07:16:06.998Z,5.06
2022-12-15T07:18:33.426Z,4.80
2022-12-15T07:21:02.011Z,4.52
2022-12-15T07:23:52.670Z,5.06
2022-12-15T07:26:21.475Z,5.06
2022-12-15T07:28:47.938Z,4.64
2022-12-15T07:31:14.398Z,4.54
2022-12-15T07:33:47.864Z,4.31
2022-12-15T07:36:14.317Z,4.61
2022-12-15T07:38:42.929Z,4.17
2022-12-15T07:41:09.466Z,3.56
2022-12-15T07:43:36.591Z,3.59
2022-12-15T07:46:11.227Z,3.70
2022-12-15T07:48:37.913Z,3.93
2022-12-15T07:51:10.907Z,4.23
2022-12-15T07:53:41.935Z,3.80
2022-12-15T07:56:11.348Z,3.48
2022-12-15T07:58:37.836Z,3.49
2022-12-15T08:01:04.392Z,3.74
2022-12-15T08:03:31.296Z,3.31
2022-12-15T08:06:03.869Z,2.92
2022-12-15T08:08:30.916Z,3.65
2022-12-15T08:10:57.664Z,4.50
2022-12-15T08:14:00.225Z,4.69
2022-12-15T08:16:12.870Z,5.04
2022-12-15T08:18:40.299Z,4.05
2022-12-15T08:23:54.784Z,2.93
2022-12-15T08:26:29.785Z,2.71
2022-12-15T08:28:57.128Z,2.64
2022-12-15T08:31:27.109Z,2.95
2022-12-15T08:33:53.612Z,3.06
2022-12-15T08:36:28.456Z,4.22
2022-12-15T08:38:55.017Z,4.74
2022-12-15T08:41:23.847Z,4.04
2022-12-15T08:43:50.464Z,3.63
2022-12-15T08:49:02.160Z,5.23
2022-12-15T08:51:28.526Z,5.02
2022-12-15T08:53:54.934Z,5.18
2022-12-15T08:56:22.278Z,6.97
2022-12-15T08:58:57.680Z,7.50
2022-12-15T09:01:24.438Z,8.73
2022-12-15T09:03:51.165Z,6.82
2022-12-15T09:06:17.679Z,7.52
2022-12-15T09:08:44.172Z,8.20
2022-12-15T09:11:15.066Z,8.53
2022-12-15T09:13:41.494Z,8.00
2022-12-15T09:16:10.013Z,7.91
2022-12-15T09:18:37.094Z,7.78
2022-12-15T09:21:03.618Z,7.28
2022-12-15T09:23:35.474Z,6.66
2022-12-15T09:28:42.709Z,5.27
2022-12-15T09:31:16.803Z,4.97
2022-12-15T09:33:47.330Z,6.21
2022-12-15T09:36:22.560Z,5.70
2022-12-15T09:38:48.972Z,5.45
2022-12-15T09:41:16.604Z,5.27
2022-12-15T09:43:47.127Z,5.60
2022-12-15T09:46:14.075Z,5.62
2022-12-15T09:48:40.592Z,5.51
2022-12-15T09:51:07.018Z,5.32
2022-12-15T09:53:57.424Z,5.20
2022-12-15T09:56:19.878Z,5.29
2022-12-15T09:58:48.832Z,5.16
2022-12-15T10:01:17.172Z,5.21
2022-12-15T10:03:43.737Z,5.15
2022-12-15T10:06:20.045Z,5.64
2022-12-15T10:08:50.843Z,5.40
2022-12-15T10:11:18.433Z,6.87
2022-12-15T10:13:44.931Z,7.29
2022-12-15T10:16:11.751Z,6.78
2022-12-15T10:18:38.273Z,6.37
2022-12-15T10:21:04.684Z,6.04
2022-12-15T10:23:31.452Z,6.12
2022-12-15T10:25:58.365Z,6.55
2022-12-15T10:28:24.808Z,6.62
2022-12-15T10:30:51.410Z,6.56
2022-12-15T10:33:18.042Z,6.69
2022-12-15T10:35:44.598Z,6.28
2022-12-15T10:38:23.341Z,6.02
2022-12-15T10:40:52.845Z,6.09
2022-12-15T10:43:19.367Z,5.85
2022-12-15T10:45:45.917Z,6.26
2022-12-15T10:48:12.312Z,6.03
2022-12-15T10:50:38.775Z,5.85
2022-12-15T10:53:05.283Z,6.42
2022-12-15T10:55:31.852Z,6.19
2022-12-15T10:57:58.210Z,6.85
2022-12-15T11:00:24.660Z,7.21
2022-12-15T11:02:51.509Z,7.05
2022-12-15T11:05:20.828Z,7.16
2022-12-15T11:07:47.570Z,7.11
2022-12-15T11:10:15.107Z,7.09
2022-12-15T11:12:41.635Z,7.08
2022-12-15T11:15:08.175Z,6.62
2022-12-15T11:17:34.665Z,7.13
2022-12-15T11:20:03.099Z,7.13
2022-12-15T11:22:29.962Z,6.42
2022-12-15T11:24:57.741Z,6.40
2022-12-15T11:27:24.466Z,6.18
2022-12-15T11:29:50.906Z,6.88
2022-12-15T11:32:17.389Z,6.76
2022-12-15T11:35:02.008Z,6.52
2022-12-15T11:37:34.237Z,6.46
2022-12-15T11:40:09.259Z,6.63
2022-12-15T11:42:38.698Z,6.39
2022-12-15T11:45:11.317Z,10.75
2022-12-15T11:47:39.908Z,14.09
2022-12-15T11:50:06.463Z,14.00
2022-12-15T11:52:32.969Z,18.90
2022-12-15T11:57:39.779Z,7.97
2022-12-15T12:00:06.221Z,6.84
2022-12-15T12:02:32.881Z,6.33
2022-12-15T12:04:59.555Z,7.04
2022-12-15T12:07:26.181Z,6.71
2022-12-15T12:09:52.720Z,7.19
2022-12-15T12:12:19.289Z,9.21
2022-12-15T12:14:45.827Z,8.74
2022-12-15T12:17:17.190Z,6.80
2022-12-15T12:19:43.575Z,6.92
2022-12-15T12:22:10.008Z,6.70
2022-12-15T12:24:48.918Z,6.78
2022-12-15T12:27:24.438Z,7.08
2022-12-15T12:29:50.918Z,7.85
2022-12-15T12:32:17.386Z,7.03
2022-12-15T12:34:43.988Z,6.81
2022-12-15T12:37:10.493Z,7.11
2022-12-15T12:39:36.952Z,6.46
2022-12-15T12:42:04.308Z,6.06
2022-12-15T12:44:30.951Z,6.76
2022-12-15T12:46:57.732Z,6.46
2022-12-15T12:49:26.703Z,6.11
2022-12-15T12:51:53.558Z,5.89
2022-12-15T12:54:22.228Z,6.05
2022-12-15T12:56:50.640Z,6.27
2022-12-15T12:59:17.172Z,6.55
2022-12-15T13:01:43.775Z,5.77
2022-12-15T13:04:10.264Z,5.56
2022-12-15T13:06:36.708Z,5.91
2022-12-15T13:09:04.411Z,5.62
2022-12-15T13:11:30.980Z,5.58
2022-12-15T13:13:57.396Z,5.77
2022-12-15T13:16:25.236Z,6.02
2022-12-15T13:21:38.907Z,6.38
2022-12-15T13:24:05.365Z,6.29
2022-12-15T13:26:31.913Z,6.62
2022-12-15T13:28:58.409Z,6.65
2022-12-15T13:31:25.171Z,7.19
2022-12-15T13:33:51.846Z,7.30
2022-12-15T13:36:18.331Z,7.36
2022-12-15T13:38:46.146Z,7.68
2022-12-15T13:41:17.158Z,7.82
2022-12-15T13:43:43.615Z,7.93
2022-12-15T13:46:10.194Z,8.33
2022-12-15T13:48:36.784Z,8.04
2022-12-15T13:51:03.475Z,7.82
2022-12-15T13:53:29.912Z,8.00
2022-12-15T13:55:56.434Z,8.86
2022-12-15T13:58:22.984Z,7.93
2022-12-15T14:00:53.725Z,7.46
2022-12-15T14:03:20.300Z,7.26
2022-12-15T14:05:46.750Z,6.73
2022-12-15T14:08:13.289Z,7.41
2022-12-15T14:10:39.826Z,7.02
2022-12-15T14:13:15.465Z,7.30
2022-12-15T14:15:42.767Z,7.52
2022-12-15T14:18:09.203Z,7.81
2022-12-15T14:20:35.591Z,8.13
2022-12-15T14:23:02.022Z,8.82
2022-12-15T14:25:28.433Z,8.30
2022-12-15T14:27:54.869Z,8.65
2022-12-15T14:30:21.309Z,8.80
2022-12-15T14:32:47.836Z,8.63
2022-12-15T14:35:17.019Z,9.14
2022-12-15T14:37:43.467Z,11.38
2022-12-15T14:40:09.931Z,20.01
2022-12-15T14:42:36.366Z,20.94
2022-12-15T14:45:02.776Z,23.91
2022-12-15T14:47:29.324Z,17.54
2022-12-15T14:49:55.744Z,12.74
2022-12-15T14:52:23.367Z,10.17
2022-12-15T14:54:49.851Z,9.12
2022-12-15T14:57:16.238Z,8.04
2022-12-15T14:59:42.671Z,7.36
2022-12-15T15:02:09.405Z,7.62
2022-12-15T15:04:35.900Z,8.32
2022-12-15T15:07:02.289Z,9.11
2022-12-15T15:09:28.710Z,8.83
2022-12-15T15:11:55.093Z,8.62
2022-12-15T15:14:21.531Z,8.17
2022-12-15T15:16:48.097Z,8.34
2022-12-15T15:19:15.820Z,8.21
2022-12-15T15:21:42.248Z,8.45
2022-12-15T15:24:08.695Z,8.79
2022-12-15T15:26:35.231Z,7.59
2022-12-15T15:29:08.496Z,7.73
2022-12-15T15:31:41.055Z,7.55
2022-12-15T15:34:08.372Z,8.04
2022-12-15T15:36:35.101Z,8.70
2022-12-15T15:39:02.662Z,8.73
2022-12-15T15:41:29.073Z,7.86
2022-12-15T15:43:55.570Z,8.01
2022-12-15T15:46:27.376Z,7.85
2022-12-15T15:48:54.489Z,8.04
2022-12-15T15:51:22.246Z,8.55
2022-12-15T15:53:48.718Z,8.60
2022-12-15T15:56:16.548Z,8.62
2022-12-15T15:58:43.690Z,8.66
2022-12-15T16:01:14.519Z,8.75
2022-12-15T16:03:41.138Z,8.84
2022-12-15T16:06:09.605Z,8.53
2022-12-15T16:08:41.894Z,8.31
2022-12-15T16:11:10.916Z,7.48
2022-12-15T16:13:37.362Z,7.46
2022-12-15T16:16:04.034Z,7.17
2022-12-15T16:18:31.837Z,7.40
2022-12-15T16:21:00.411Z,7.34
2022-12-15T16:23:26.831Z,7.62
2022-12-15T16:25:54.015Z,9.02
2022-12-15T16:28:20.598Z,9.32
2022-12-15T16:30:47.164Z,11.97
2022-12-15T16:33:15.396Z,13.69
2022-12-15T16:35:42.074Z,10.81
2022-12-15T16:38:08.549Z,10.21
2022-12-15T16:40:34.983Z,11.11
2022-12-15T16:43:04.889Z,10.85
2022-12-15T16:45:33.020Z,8.86
2022-12-15T16:47:59.525Z,10.99
2022-12-15T16:50:28.313Z,12.85
2022-12-15T16:52:54.693Z,31.49
2022-12-15T16:55:21.168Z,43.49
2022-12-15T16:57:55.169Z,23.52
2022-12-15T17:00:21.625Z,12.72
2022-12-15T17:02:48.186Z,9.84
2022-12-15T17:05:16.812Z,8.22
2022-12-15T17:07:43.262Z,8.13
2022-12-15T17:10:12.661Z,8.88
2022-12-15T17:12:46.596Z,10.60
2022-12-15T17:15:12.909Z,9.41
2022-12-15T17:17:39.466Z,8.73
2022-12-15T17:22:52.370Z,6.97
2022-12-15T17:25:27.388Z,6.04
2022-12-15T17:28:04.172Z,5.43
2022-12-15T17:30:30.513Z,7.00
2022-12-15T17:32:56.924Z,14.19
2022-12-15T17:35:23.421Z,15.05
2022-12-15T17:37:49.852Z,9.10
2022-12-15T17:40:16.410Z,7.90
2022-12-15T17:42:43.842Z,7.48
2022-12-15T17:45:10.284Z,8.47
2022-12-15T17:47:36.717Z,9.31
2022-12-15T17:50:07.175Z,9.96
2022-12-15T17:52:33.576Z,12.35
2022-12-15T17:55:00.006Z,18.04
2022-12-15T17:57:26.384Z,20.25
2022-12-15T17:59:53.225Z,18.93
2022-12-15T18:02:19.704Z,13.01
2022-12-15T18:04:46.264Z,10.11
2022-12-15T18:07:12.650Z,9.54
2022-12-15T18:09:40.395Z,8.62
2022-12-15T18:12:06.921Z,8.23
2022-12-15T18:14:33.331Z,7.64
2022-12-15T18:17:09.319Z,7.44
2022-12-15T18:22:18.927Z,6.98
2022-12-15T18:24:45.279Z,7.60
2022-12-15T18:27:17.721Z,7.78
2022-12-15T18:29:44.139Z,8.10
2022-12-15T18:32:10.551Z,9.54
2022-12-15T18:34:36.943Z,59.47
2022-12-15T18:37:03.394Z,61.39
2022-12-15T18:39:29.849Z,25.36
2022-12-15T18:41:56.313Z,16.95
2022-12-15T18:44:22.754Z,12.20
2022-12-15T18:46:55.107Z,8.23
2022-12-15T18:49:21.917Z,7.51
2022-12-15T18:51:48.258Z,7.05
2022-12-15T18:54:29.385Z,6.95
2022-12-15T18:56:58.337Z,7.14
2022-12-15T18:59:24.813Z,6.97
2022-12-15T19:01:56.230Z,7.48
2022-12-15T19:04:22.693Z,7.65
2022-12-15T19:06:49.087Z,6.90
2022-12-15T19:09:15.450Z,6.71
2022-12-15T19:11:41.815Z,7.05
2022-12-15T19:14:08.176Z,18.61
2022-12-15T19:16:35.087Z,19.54
2022-12-15T19:19:01.549Z,27.24
2022-12-15T19:21:28.020Z,12.60
2022-12-15T19:23:54.518Z,10.96
2022-12-15T19:26:20.892Z,11.24
2022-12-15T19:28:54.551Z,9.77
2022-12-15T19:31:21.082Z,8.43
2022-12-15T19:33:47.535Z,19.43
2022-12-15T19:36:13.938Z,34.77
2022-12-15T19:38:40.355Z,43.84
2022-12-15T19:41:06.751Z,18.69
2022-12-15T19:43:36.768Z,12.56
2022-12-15T19:46:03.559Z,9.38
2022-12-15T19:48:30.087Z,8.04
2022-12-15T19:50:56.472Z,8.63
2022-12-15T19:53:22.844Z,7.85
2022-12-15T19:55:49.281Z,8.42
2022-12-15T19:58:15.629Z,7.37
2022-12-15T20:00:42.102Z,7.06
2022-12-15T20:03:08.566Z,6.34
2022-12-15T20:05:35.099Z,5.83
2022-12-15T20:08:12.439Z,5.88
2022-12-15T20:10:38.849Z,5.44
2022-12-15T20:13:05.335Z,5.12
2022-12-15T20:15:31.689Z,5.36
2022-12-15T20:17:58.183Z,5.38
2022-12-15T20:20:28.041Z,5.28
2022-12-15T20:22:54.504Z,5.29
2022-12-15T20:25:20.855Z,5.61
2022-12-15T20:27:47.234Z,5.81
2022-12-15T20:30:16.478Z,5.91
2022-12-15T20:32:44.176Z,7.94
2022-12-15T20:35:10.713Z,11.65
2022-12-15T20:37:38.042Z,10.69
2022-12-15T20:40:04.425Z,7.36
2022-12-15T20:42:30.781Z,6.45
2022-12-15T20:44:57.168Z,5.93
2022-12-15T20:47:23.650Z,5.51
2022-12-15T20:49:52.925Z,8.54
2022-12-15T20:52:19.354Z,11.04
2022-12-15T20:57:36.166Z,24.28
2022-12-15T21:00:02.564Z,18.11
2022-12-15T21:05:20.009Z,4.94
2022-12-15T21:07:46.338Z,4.91
2022-12-15T21:10:12.759Z,5.32
2022-12-15T21:12:39.410Z,5.07
2022-12-15T21:15:08.227Z,5.10
2022-12-15T21:17:38.692Z,4.84
2022-12-15T21:20:10.470Z,4.79
2022-12-15T21:22:37.091Z,4.97
2022-12-15T21:25:06.187Z,6.00
2022-12-15T21:27:32.654Z,6.23
2022-12-15T21:29:59.032Z,5.74
2022-12-15T21:32:25.534Z,6.34
2022-12-15T21:34:55.778Z,6.91
2022-12-15T21:37:24.714Z,7.18
2022-12-15T21:39:51.866Z,6.21
2022-12-15T21:42:19.141Z,4.73
2022-12-15T21:44:45.553Z,4.84
2022-12-15T21:47:11.935Z,5.04
2022-12-15T21:49:39.820Z,5.32
2022-12-15T21:52:18.474Z,5.15
2022-12-15T21:54:48.666Z,5.32
2022-12-15T21:57:15.176Z,5.18
2022-12-15T21:59:41.568Z,4.27
2022-12-15T22:02:09.558Z,4.68
2022-12-15T22:04:36.078Z,6.45
2022-12-15T22:07:08.363Z,6.49
2022-12-15T22:09:34.885Z,5.27
2022-12-15T22:12:04.185Z,3.88
2022-12-15T22:17:12.020Z,4.80
2022-12-15T22:19:38.489Z,5.10
2022-12-15T22:22:07.062Z,4.99
2022-12-15T22:24:34.450Z,4.52
2022-12-15T22:27:01.060Z,3.89
2022-12-15T22:29:27.455Z,3.59
2022-12-15T22:31:55.024Z,3.23
2022-12-15T22:34:21.594Z,3.68
2022-12-15T22:36:48.093Z,3.55
2022-12-15T22:39:14.687Z,3.39
2022-12-15T22:41:41.156Z,3.22
2022-12-15T22:44:07.627Z,4.25
2022-12-15T22:46:34.571Z,4.05
2022-12-15T22:49:01.045Z,3.74
2022-12-15T22:51:27.691Z,3.54
2022-12-15T22:53:54.136Z,3.58
2022-12-15T22:56:21.299Z,3.68
2022-12-15T22:58:47.710Z,3.62
2022-12-15T23:01:19.346Z,3.11
2022-12-15T23:03:46.773Z,3.32
2022-12-15T23:06:15.668Z,3.25
2022-12-15T23:08:42.452Z,2.85
2022-12-15T23:11:09.226Z,2.75
2022-12-15T23:13:35.704Z,2.80
2022-12-15T23:16:05.423Z,2.41
2022-12-15T23:18:32.559Z,2.51
2022-12-15T23:20:58.931Z,2.41
2022-12-15T23:23:25.315Z,2.09
2022-12-15T23:25:51.791Z,1.88
2022-12-15T23:28:18.217Z,2.14
2022-12-15T23:30:44.642Z,2.14
2022-12-15T23:33:11.030Z,2.13
2022-12-15T23:35:37.422Z,2.13
2022-12-15T23:38:03.953Z,2.58
2022-12-15T23:40:30.454Z,2.34
2022-12-15T23:42:56.906Z,2.45
2022-12-15T23:45:23.354Z,2.12
2022-12-15T23:47:49.834Z,1.91
2022-12-15T23:50:16.287Z,1.91
2022-12-15T23:52:42.774Z,1.74
2022-12-15T23:55:09.155Z,1.63
2022-12-15T23:57:35.539Z,1.44
